sensor_id;sensor_type;location;lat;lon;timestamp;P1;durP1;ratioP1;P2;durP2;ratioP2
22160;SDS011;49035;48.812;11.762;2022-08-26T00:00:05;44.08;;;23.70;;
22160;SDS011;49035;48.812;11.762;2022-08-26T00:02:31;41.65;;;24.17;;
22160;SDS011;49035;48.812;11.762;2022-08-26T00:04:57;43.00;;;22.58;;
22160;SDS011;49035;48.812;11.762;2022-08-26T00:07:23;49.80;;;24.08;;
22160;SDS011;49035;48.812;11.762;2022-08-26T00:09:48;44.05;;;24.50;;
22160;SDS011;49035;48.812;11.762;2022-08-26T00:12:14;42.45;;;23.88;;
22160;SDS011;49035;48.812;11.762;2022-08-26T00:14:39;44.47;;;23.98;;
22160;SDS011;49035;48.812;11.762;2022-08-26T00:17:05;52.00;;;23.60;;
22160;SDS011;49035;48.812;11.762;2022-08-26T00:19:30;48.13;;;24.73;;
22160;SDS011;49035;48.812;11.762;2022-08-26T00:21:56;51.17;;;25.38;;
22160;SDS011;49035;48.812;11.762;2022-08-26T00:24:22;46.95;;;25.00;;
22160;SDS011;49035;48.812;11.762;2022-08-26T00:26:47;40.30;;;23.35;;
22160;SDS011;49035;48.812;11.762;2022-08-26T00:29:13;38.90;;;21.80;;
22160;SDS011;49035;48.812;11.762;2022-08-26T00:31:40;33.92;;;21.52;;
22160;SDS011;49035;48.812;11.762;2022-08-26T00:34:06;36.83;;;22.42;;
22160;SDS011;49035;48.812;11.762;2022-08-26T00:36:32;43.10;;;22.17;;
22160;SDS011;49035;48.812;11.762;2022-08-26T00:38:58;42.28;;;23.33;;
22160;SDS011;49035;48.812;11.762;2022-08-26T00:41:24;43.03;;;24.20;;
22160;SDS011;49035;48.812;11.762;2022-08-26T00:43:49;41.40;;;23.65;;
22160;SDS011;49035;48.812;11.762;2022-08-26T00:46:16;40.72;;;22.42;;
22160;SDS011;49035;48.812;11.762;2022-08-26T00:48:50;31.92;;;19.58;;
22160;SDS011;49035;48.812;11.762;2022-08-26T00:51:21;40.88;;;21.13;;
22160;SDS011;49035;48.812;11.762;2022-08-26T00:53:56;36.00;;;21.30;;
22160;SDS011;49035;48.812;11.762;2022-08-26T00:56:29;48.45;;;24.77;;
22160;SDS011;49035;48.812;11.762;2022-08-26T00:59:00;35.60;;;22.15;;
22160;SDS011;49035;48.812;11.762;2022-08-26T01:01:30;36.25;;;21.00;;
22160;SDS011;49035;48.812;11.762;2022-08-26T01:03:56;36.97;;;22.63;;
22160;SDS011;49035;48.812;11.762;2022-08-26T01:06:22;39.85;;;22.15;;
22160;SDS011;49035;48.812;11.762;2022-08-26T01:08:49;37.72;;;20.92;;
22160;SDS011;49035;48.812;11.762;2022-08-26T01:11:16;44.30;;;23.02;;
22160;SDS011;49035;48.812;11.762;2022-08-26T01:13:41;43.60;;;24.02;;
22160;SDS011;49035;48.812;11.762;2022-08-26T01:16:10;37.47;;;20.55;;
22160;SDS011;49035;48.812;11.762;2022-08-26T01:18:39;41.00;;;21.70;;
22160;SDS011;49035;48.812;11.762;2022-08-26T01:23:51;45.28;;;24.27;;
22160;SDS011;49035;48.812;11.762;2022-08-26T01:26:19;43.70;;;23.02;;
22160;SDS011;49035;48.812;11.762;2022-08-26T01:28:52;43.63;;;22.42;;
22160;SDS011;49035;48.812;11.762;2022-08-26T01:31:21;43.92;;;23.80;;
22160;SDS011;49035;48.812;11.762;2022-08-26T01:33:51;41.00;;;23.33;;
22160;SDS011;49035;48.812;11.762;2022-08-26T01:36:26;43.78;;;23.20;;
22160;SDS011;49035;48.812;11.762;2022-08-26T01:38:52;30.75;;;17.50;;
22160;SDS011;49035;48.812;11.762;2022-08-26T01:41:18;46.05;;;24.40;;
22160;SDS011;49035;48.812;11.762;2022-08-26T01:43:44;44.20;;;23.90;;
22160;SDS011;49035;48.812;11.762;2022-08-26T01:46:13;44.47;;;23.02;;
22160;SDS011;49035;48.812;11.762;2022-08-26T01:48:40;43.88;;;21.70;;
22160;SDS011;49035;48.812;11.762;2022-08-26T01:51:08;53.40;;;26.98;;
22160;SDS011;49035;48.812;11.762;2022-08-26T01:53:36;45.00;;;25.38;;
22160;SDS011;49035;48.812;11.762;2022-08-26T01:56:03;43.90;;;24.00;;
22160;SDS011;49035;48.812;11.762;2022-08-26T01:59:04;49.10;;;26.40;;
22160;SDS011;49035;48.812;11.762;2022-08-26T02:01:24;45.00;;;25.55;;
22160;SDS011;49035;48.812;11.762;2022-08-26T02:03:50;50.85;;;26.77;;
22160;SDS011;49035;48.812;11.762;2022-08-26T02:06:25;55.13;;;27.27;;
22160;SDS011;49035;48.812;11.762;2022-08-26T02:08:53;46.38;;;25.52;;
22160;SDS011;49035;48.812;11.762;2022-08-26T02:11:21;37.80;;;22.63;;
22160;SDS011;49035;48.812;11.762;2022-08-26T02:13:48;46.72;;;24.00;;
22160;SDS011;49035;48.812;11.762;2022-08-26T02:16:18;55.58;;;25.45;;
22160;SDS011;49035;48.812;11.762;2022-08-26T02:18:46;44.42;;;22.98;;
22160;SDS011;49035;48.812;11.762;2022-08-26T02:21:13;44.15;;;23.85;;
22160;SDS011;49035;48.812;11.762;2022-08-26T02:23:40;44.65;;;23.27;;
22160;SDS011;49035;48.812;11.762;2022-08-26T02:28:41;42.05;;;22.23;;
22160;SDS011;49035;48.812;11.762;2022-08-26T02:31:13;39.58;;;22.15;;
22160;SDS011;49035;48.812;11.762;2022-08-26T02:33:38;48.55;;;22.58;;
22160;SDS011;49035;48.812;11.762;2022-08-26T02:36:04;38.92;;;22.42;;
22160;SDS011;49035;48.812;11.762;2022-08-26T02:38:30;50.05;;;25.08;;
22160;SDS011;49035;48.812;11.762;2022-08-26T02:40:56;55.85;;;26.67;;
22160;SDS011;49035;48.812;11.762;2022-08-26T02:43:22;51.80;;;26.63;;
22160;SDS011;49035;48.812;11.762;2022-08-26T02:45:47;51.55;;;24.83;;
22160;SDS011;49035;48.812;11.762;2022-08-26T02:48:14;52.95;;;26.10;;
22160;SDS011;49035;48.812;11.762;2022-08-26T02:50:42;45.00;;;23.27;;
22160;SDS011;49035;48.812;11.762;2022-08-26T02:53:08;48.40;;;24.83;;
22160;SDS011;49035;48.812;11.762;2022-08-26T02:55:34;49.42;;;26.08;;
22160;SDS011;49035;48.812;11.762;2022-08-26T02:58:00;45.25;;;23.40;;
22160;SDS011;49035;48.812;11.762;2022-08-26T03:00:26;43.08;;;23.85;;
22160;SDS011;49035;48.812;11.762;2022-08-26T03:02:52;51.00;;;24.65;;
22160;SDS011;49035;48.812;11.762;2022-08-26T03:05:19;47.53;;;25.60;;
22160;SDS011;49035;48.812;11.762;2022-08-26T03:07:46;46.03;;;26.15;;
22160;SDS011;49035;48.812;11.762;2022-08-26T03:10:12;52.63;;;25.50;;
22160;SDS011;49035;48.812;11.762;2022-08-26T03:12:39;40.95;;;22.52;;
22160;SDS011;49035;48.812;11.762;2022-08-26T03:15:05;50.42;;;22.65;;
22160;SDS011;49035;48.812;11.762;2022-08-26T03:17:31;43.08;;;21.48;;
22160;SDS011;49035;48.812;11.762;2022-08-26T03:19:57;45.47;;;23.65;;
22160;SDS011;49035;48.812;11.762;2022-08-26T03:22:22;37.80;;;22.48;;
22160;SDS011;49035;48.812;11.762;2022-08-26T03:24:48;42.85;;;23.05;;
22160;SDS011;49035;48.812;11.762;2022-08-26T03:27:14;43.13;;;21.02;;
22160;SDS011;49035;48.812;11.762;2022-08-26T03:29:43;45.95;;;22.92;;
22160;SDS011;49035;48.812;11.762;2022-08-26T03:32:27;41.13;;;22.90;;
22160;SDS011;49035;48.812;11.762;2022-08-26T03:34:53;45.45;;;23.20;;
22160;SDS011;49035;48.812;11.762;2022-08-26T03:37:20;39.47;;;23.02;;
22160;SDS011;49035;48.812;11.762;2022-08-26T03:39:46;45.63;;;22.90;;
22160;SDS011;49035;48.812;11.762;2022-08-26T03:42:12;42.50;;;22.35;;
22160;SDS011;49035;48.812;11.762;2022-08-26T03:44:38;31.30;;;19.33;;
22160;SDS011;49035;48.812;11.762;2022-08-26T03:47:05;46.78;;;22.13;;
22160;SDS011;49035;48.812;11.762;2022-08-26T03:49:31;38.95;;;21.52;;
22160;SDS011;49035;48.812;11.762;2022-08-26T03:51:58;38.45;;;22.05;;
22160;SDS011;49035;48.812;11.762;2022-08-26T03:54:24;32.53;;;20.77;;
22160;SDS011;49035;48.812;11.762;2022-08-26T03:56:50;48.15;;;21.77;;
22160;SDS011;49035;48.812;11.762;2022-08-26T03:59:16;40.28;;;21.85;;
22160;SDS011;49035;48.812;11.762;2022-08-26T04:01:42;38.65;;;21.02;;
22160;SDS011;49035;48.812;11.762;2022-08-26T04:04:07;39.88;;;21.50;;
22160;SDS011;49035;48.812;11.762;2022-08-26T04:06:35;61.08;;;23.83;;
22160;SDS011;49035;48.812;11.762;2022-08-26T04:09:04;40.20;;;24.15;;
22160;SDS011;49035;48.812;11.762;2022-08-26T04:11:36;40.17;;;21.80;;
22160;SDS011;49035;48.812;11.762;2022-08-26T04:14:05;33.03;;;20.15;;
22160;SDS011;49035;48.812;11.762;2022-08-26T04:16:33;38.15;;;20.20;;
22160;SDS011;49035;48.812;11.762;2022-08-26T04:18:59;38.28;;;20.83;;
22160;SDS011;49035;48.812;11.762;2022-08-26T04:21:25;34.13;;;21.17;;
22160;SDS011;49035;48.812;11.762;2022-08-26T04:23:51;44.58;;;22.15;;
22160;SDS011;49035;48.812;11.762;2022-08-26T04:26:18;41.15;;;21.15;;
22160;SDS011;49035;48.812;11.762;2022-08-26T04:28:45;36.92;;;20.02;;
22160;SDS011;49035;48.812;11.762;2022-08-26T04:31:12;44.35;;;22.48;;
22160;SDS011;49035;48.812;11.762;2022-08-26T04:33:39;42.00;;;21.83;;
22160;SDS011;49035;48.812;11.762;2022-08-26T04:36:05;42.78;;;22.17;;
22160;SDS011;49035;48.812;11.762;2022-08-26T04:38:31;42.38;;;22.67;;
22160;SDS011;49035;48.812;11.762;2022-08-26T04:40:58;46.13;;;21.70;;
22160;SDS011;49035;48.812;11.762;2022-08-26T04:43:24;45.83;;;23.83;;
22160;SDS011;49035;48.812;11.762;2022-08-26T04:45:52;42.78;;;22.42;;
22160;SDS011;49035;48.812;11.762;2022-08-26T04:48:18;46.78;;;24.25;;
22160;SDS011;49035;48.812;11.762;2022-08-26T04:50:43;42.42;;;23.38;;
22160;SDS011;49035;48.812;11.762;2022-08-26T04:53:09;53.67;;;25.05;;
22160;SDS011;49035;48.812;11.762;2022-08-26T04:55:35;47.42;;;22.92;;
22160;SDS011;49035;48.812;11.762;2022-08-26T04:58:00;55.65;;;25.17;;
22160;SDS011;49035;48.812;11.762;2022-08-26T05:00:26;48.17;;;24.50;;
22160;SDS011;49035;48.812;11.762;2022-08-26T05:02:52;50.53;;;24.63;;
22160;SDS011;49035;48.812;11.762;2022-08-26T05:05:17;39.75;;;23.02;;
22160;SDS011;49035;48.812;11.762;2022-08-26T05:07:43;46.70;;;23.77;;
22160;SDS011;49035;48.812;11.762;2022-08-26T05:10:09;40.78;;;23.23;;
22160;SDS011;49035;48.812;11.762;2022-08-26T05:12:35;52.65;;;26.63;;
22160;SDS011;49035;48.812;11.762;2022-08-26T05:15:01;65.82;;;28.55;;
22160;SDS011;49035;48.812;11.762;2022-08-26T05:17:26;74.50;;;28.65;;
22160;SDS011;49035;48.812;11.762;2022-08-26T05:19:52;67.60;;;27.77;;
22160;SDS011;49035;48.812;11.762;2022-08-26T05:22:18;53.20;;;26.42;;
22160;SDS011;49035;48.812;11.762;2022-08-26T05:24:44;50.88;;;26.63;;
22160;SDS011;49035;48.812;11.762;2022-08-26T05:27:10;52.47;;;27.10;;
22160;SDS011;49035;48.812;11.762;2022-08-26T05:29:37;51.53;;;26.42;;
22160;SDS011;49035;48.812;11.762;2022-08-26T05:32:04;49.92;;;26.77;;
22160;SDS011;49035;48.812;11.762;2022-08-26T05:34:29;50.45;;;27.35;;
22160;SDS011;49035;48.812;11.762;2022-08-26T05:36:56;54.30;;;27.92;;
22160;SDS011;49035;48.812;11.762;2022-08-26T05:39:22;51.25;;;27.67;;
22160;SDS011;49035;48.812;11.762;2022-08-26T05:41:48;54.97;;;28.20;;
22160;SDS011;49035;48.812;11.762;2022-08-26T05:44:14;45.65;;;25.35;;
22160;SDS011;49035;48.812;11.762;2022-08-26T05:46:42;48.53;;;27.90;;
22160;SDS011;49035;48.812;11.762;2022-08-26T05:49:09;43.40;;;25.75;;
22160;SDS011;49035;48.812;11.762;2022-08-26T05:51:35;52.33;;;27.45;;
22160;SDS011;49035;48.812;11.762;2022-08-26T05:54:02;42.22;;;25.98;;
22160;SDS011;49035;48.812;11.762;2022-08-26T05:56:28;51.13;;;26.40;;
22160;SDS011;49035;48.812;11.762;2022-08-26T05:58:54;45.05;;;25.67;;
22160;SDS011;49035;48.812;11.762;2022-08-26T06:01:22;44.92;;;25.42;;
22160;SDS011;49035;48.812;11.762;2022-08-26T06:03:53;48.58;;;25.38;;
22160;SDS011;49035;48.812;11.762;2022-08-26T06:06:25;42.03;;;24.50;;
22160;SDS011;49035;48.812;11.762;2022-08-26T06:08:52;47.05;;;26.90;;
22160;SDS011;49035;48.812;11.762;2022-08-26T06:11:19;42.03;;;25.42;;
22160;SDS011;49035;48.812;11.762;2022-08-26T06:13:50;51.55;;;30.13;;
22160;SDS011;49035;48.812;11.762;2022-08-26T06:16:19;46.08;;;25.20;;
22160;SDS011;49035;48.812;11.762;2022-08-26T06:18:47;50.70;;;24.40;;
22160;SDS011;49035;48.812;11.762;2022-08-26T06:21:25;43.92;;;24.38;;
22160;SDS011;49035;48.812;11.762;2022-08-26T06:23:54;46.08;;;26.00;;
22160;SDS011;49035;48.812;11.762;2022-08-26T06:26:41;42.90;;;25.42;;
22160;SDS011;49035;48.812;11.762;2022-08-26T06:29:11;51.42;;;27.70;;
22160;SDS011;49035;48.812;11.762;2022-08-26T06:31:36;49.85;;;27.85;;
22160;SDS011;49035;48.812;11.762;2022-08-26T06:34:02;49.85;;;28.60;;
22160;SDS011;49035;48.812;11.762;2022-08-26T06:36:29;61.00;;;30.80;;
22160;SDS011;49035;48.812;11.762;2022-08-26T06:38:58;44.75;;;28.25;;
22160;SDS011;49035;48.812;11.762;2022-08-26T06:41:26;44.35;;;28.15;;
22160;SDS011;49035;48.812;11.762;2022-08-26T06:43:52;48.30;;;28.50;;
22160;SDS011;49035;48.812;11.762;2022-08-26T06:46:18;46.30;;;28.30;;
22160;SDS011;49035;48.812;11.762;2022-08-26T06:48:45;51.00;;;30.48;;
22160;SDS011;49035;48.812;11.762;2022-08-26T06:53:39;45.13;;;28.20;;
22160;SDS011;49035;48.812;11.762;2022-08-26T06:56:07;41.60;;;23.65;;
22160;SDS011;49035;48.812;11.762;2022-08-26T06:58:35;33.45;;;22.50;;
22160;SDS011;49035;48.812;11.762;2022-08-26T07:01:01;36.30;;;23.45;;
22160;SDS011;49035;48.812;11.762;2022-08-26T07:03:28;31.83;;;21.67;;
22160;SDS011;49035;48.812;11.762;2022-08-26T07:05:59;31.80;;;22.40;;
22160;SDS011;49035;48.812;11.762;2022-08-26T07:08:26;34.75;;;20.50;;
22160;SDS011;49035;48.812;11.762;2022-08-26T07:10:51;28.85;;;19.17;;
22160;SDS011;49035;48.812;11.762;2022-08-26T07:13:17;26.25;;;18.73;;
22160;SDS011;49035;48.812;11.762;2022-08-26T07:15:42;28.95;;;17.27;;
22160;SDS011;49035;48.812;11.762;2022-08-26T07:18:08;30.65;;;18.52;;
22160;SDS011;49035;48.812;11.762;2022-08-26T07:20:37;27.00;;;17.63;;
22160;SDS011;49035;48.812;11.762;2022-08-26T07:23:07;28.83;;;17.02;;
22160;SDS011;49035;48.812;11.762;2022-08-26T07:25:33;31.58;;;17.13;;
22160;SDS011;49035;48.812;11.762;2022-08-26T07:28:02;30.42;;;16.48;;
22160;SDS011;49035;48.812;11.762;2022-08-26T07:30:28;24.60;;;15.57;;
22160;SDS011;49035;48.812;11.762;2022-08-26T07:32:54;20.75;;;14.90;;
22160;SDS011;49035;48.812;11.762;2022-08-26T07:35:21;31.52;;;15.60;;
22160;SDS011;49035;48.812;11.762;2022-08-26T07:37:46;32.60;;;16.52;;
22160;SDS011;49035;48.812;11.762;2022-08-26T07:40:12;33.90;;;16.20;;
22160;SDS011;49035;48.812;11.762;2022-08-26T07:42:38;29.58;;;14.65;;
22160;SDS011;49035;48.812;11.762;2022-08-26T07:45:04;23.83;;;14.60;;
22160;SDS011;49035;48.812;11.762;2022-08-26T07:47:30;34.35;;;15.73;;
22160;SDS011;49035;48.812;11.762;2022-08-26T07:49:56;22.23;;;15.68;;
22160;SDS011;49035;48.812;11.762;2022-08-26T07:52:22;26.45;;;15.82;;
22160;SDS011;49035;48.812;11.762;2022-08-26T07:54:52;26.38;;;15.30;;
22160;SDS011;49035;48.812;11.762;2022-08-26T07:57:19;23.08;;;16.02;;
22160;SDS011;49035;48.812;11.762;2022-08-26T07:59:44;28.88;;;16.15;;
22160;SDS011;49035;48.812;11.762;2022-08-26T08:02:10;26.42;;;15.40;;
22160;SDS011;49035;48.812;11.762;2022-08-26T08:04:35;27.08;;;14.07;;
22160;SDS011;49035;48.812;11.762;2022-08-26T08:07:01;24.85;;;13.93;;
22160;SDS011;49035;48.812;11.762;2022-08-26T08:09:27;21.75;;;12.15;;
22160;SDS011;49035;48.812;11.762;2022-08-26T08:11:52;19.08;;;11.35;;
22160;SDS011;49035;48.812;11.762;2022-08-26T08:14:18;18.27;;;10.88;;
22160;SDS011;49035;48.812;11.762;2022-08-26T08:16:44;20.25;;;11.18;;
22160;SDS011;49035;48.812;11.762;2022-08-26T08:19:10;20.73;;;10.75;;
22160;SDS011;49035;48.812;11.762;2022-08-26T08:21:36;19.48;;;9.82;;
22160;SDS011;49035;48.812;11.762;2022-08-26T08:24:01;13.60;;;8.73;;
22160;SDS011;49035;48.812;11.762;2022-08-26T08:26:27;17.00;;;10.20;;
22160;SDS011;49035;48.812;11.762;2022-08-26T08:28:53;19.60;;;10.23;;
22160;SDS011;49035;48.812;11.762;2022-08-26T08:31:24;15.02;;;9.75;;
22160;SDS011;49035;48.812;11.762;2022-08-26T08:33:52;17.60;;;8.75;;
22160;SDS011;49035;48.812;11.762;2022-08-26T08:36:17;18.58;;;10.27;;
22160;SDS011;49035;48.812;11.762;2022-08-26T08:38:43;13.70;;;9.70;;
22160;SDS011;49035;48.812;11.762;2022-08-26T08:41:27;21.52;;;10.65;;
22160;SDS011;49035;48.812;11.762;2022-08-26T08:44:01;18.58;;;10.85;;
22160;SDS011;49035;48.812;11.762;2022-08-26T08:46:27;15.80;;;10.90;;
22160;SDS011;49035;48.812;11.762;2022-08-26T08:48:55;23.52;;;10.88;;
22160;SDS011;49035;48.812;11.762;2022-08-26T08:51:47;17.10;;;10.75;;
22160;SDS011;49035;48.812;11.762;2022-08-26T08:54:22;19.73;;;10.10;;
22160;SDS011;49035;48.812;11.762;2022-08-26T08:57:10;21.50;;;10.63;;
22160;SDS011;49035;48.812;11.762;2022-08-26T08:59:42;14.70;;;10.23;;
22160;SDS011;49035;48.812;11.762;2022-08-26T09:04:53;19.23;;;10.88;;
22160;SDS011;49035;48.812;11.762;2022-08-26T09:07:30;17.13;;;10.80;;
22160;SDS011;49035;48.812;11.762;2022-08-26T09:12:47;15.90;;;10.20;;
22160;SDS011;49035;48.812;11.762;2022-08-26T09:15:19;19.60;;;10.40;;
22160;SDS011;49035;48.812;11.762;2022-08-26T09:23:11;13.13;;;8.95;;
22160;SDS011;49035;48.812;11.762;2022-08-26T09:25:47;13.90;;;9.43;;
22160;SDS011;49035;48.812;11.762;2022-08-26T09:28:19;16.38;;;10.07;;
22160;SDS011;49035;48.812;11.762;2022-08-26T09:30:58;15.93;;;8.38;;
22160;SDS011;49035;48.812;11.762;2022-08-26T09:33:34;16.13;;;7.90;;
22160;SDS011;49035;48.812;11.762;2022-08-26T09:38:46;15.55;;;7.50;;
22160;SDS011;49035;48.812;11.762;2022-08-26T09:41:26;12.05;;;8.10;;
22160;SDS011;49035;48.812;11.762;2022-08-26T09:46:28;15.50;;;9.00;;
22160;SDS011;49035;48.812;11.762;2022-08-26T09:48:55;13.85;;;8.73;;
22160;SDS011;49035;48.812;11.762;2022-08-26T09:51:42;16.38;;;9.35;;
22160;SDS011;49035;48.812;11.762;2022-08-26T09:54:08;15.02;;;9.55;;
22160;SDS011;49035;48.812;11.762;2022-08-26T09:56:50;16.23;;;9.57;;
22160;SDS011;49035;48.812;11.762;2022-08-26T09:59:27;14.52;;;8.75;;
22160;SDS011;49035;48.812;11.762;2022-08-26T10:01:54;20.80;;;9.77;;
22160;SDS011;49035;48.812;11.762;2022-08-26T10:04:23;17.85;;;10.00;;
22160;SDS011;49035;48.812;11.762;2022-08-26T10:06:54;16.45;;;9.05;;
22160;SDS011;49035;48.812;11.762;2022-08-26T10:09:25;15.70;;;8.23;;
22160;SDS011;49035;48.812;11.762;2022-08-26T10:11:56;18.92;;;8.43;;
22160;SDS011;49035;48.812;11.762;2022-08-26T10:14:28;16.20;;;8.18;;
22160;SDS011;49035;48.812;11.762;2022-08-26T10:17:04;16.40;;;7.80;;
22160;SDS011;49035;48.812;11.762;2022-08-26T10:22:35;17.15;;;7.78;;
22160;SDS011;49035;48.812;11.762;2022-08-26T10:25:30;20.42;;;7.45;;
22160;SDS011;49035;48.812;11.762;2022-08-26T10:28:01;15.10;;;6.90;;
22160;SDS011;49035;48.812;11.762;2022-08-26T10:30:37;18.80;;;7.30;;
22160;SDS011;49035;48.812;11.762;2022-08-26T10:33:10;13.88;;;6.95;;
22160;SDS011;49035;48.812;11.762;2022-08-26T10:35:55;14.63;;;6.45;;
22160;SDS011;49035;48.812;11.762;2022-08-26T10:38:26;18.05;;;8.25;;
22160;SDS011;49035;48.812;11.762;2022-08-26T10:41:12;13.30;;;6.75;;
22160;SDS011;49035;48.812;11.762;2022-08-26T10:46:17;10.82;;;7.10;;
22160;SDS011;49035;48.812;11.762;2022-08-26T10:51:18;15.63;;;7.22;;
22160;SDS011;49035;48.812;11.762;2022-08-26T10:54:00;16.40;;;6.75;;
22160;SDS011;49035;48.812;11.762;2022-08-26T11:01:54;12.80;;;6.40;;
22160;SDS011;49035;48.812;11.762;2022-08-26T11:10:00;15.07;;;7.03;;
22160;SDS011;49035;48.812;11.762;2022-08-26T11:15:01;18.20;;;7.28;;
22160;SDS011;49035;48.812;11.762;2022-08-26T11:22:55;19.10;;;6.65;;
22160;SDS011;49035;48.812;11.762;2022-08-26T11:36:36;14.25;;;7.00;;
22160;SDS011;49035;48.812;11.762;2022-08-26T11:42:31;17.33;;;7.35;;
22160;SDS011;49035;48.812;11.762;2022-08-26T11:45:18;20.25;;;7.15;;
22160;SDS011;49035;48.812;11.762;2022-08-26T11:47:54;14.63;;;6.97;;
22160;SDS011;49035;48.812;11.762;2022-08-26T11:50:22;13.25;;;6.72;;
22160;SDS011;49035;48.812;11.762;2022-08-26T11:52:53;13.90;;;6.40;;
22160;SDS011;49035;48.812;11.762;2022-08-26T11:55:20;17.50;;;7.07;;
22160;SDS011;49035;48.812;11.762;2022-08-26T11:57:48;16.70;;;6.53;;
22160;SDS011;49035;48.812;11.762;2022-08-26T12:00:20;14.57;;;7.72;;
22160;SDS011;49035;48.812;11.762;2022-08-26T12:03:06;12.73;;;7.82;;
22160;SDS011;49035;48.812;11.762;2022-08-26T12:05:40;12.95;;;8.02;;
22160;SDS011;49035;48.812;11.762;2022-08-26T12:08:10;19.98;;;8.35;;
22160;SDS011;49035;48.812;11.762;2022-08-26T12:10:39;14.00;;;8.55;;
22160;SDS011;49035;48.812;11.762;2022-08-26T12:13:05;20.08;;;7.97;;
22160;SDS011;49035;48.812;11.762;2022-08-26T12:15:50;19.00;;;9.02;;
22160;SDS011;49035;48.812;11.762;2022-08-26T12:18:39;17.67;;;8.63;;
22160;SDS011;49035;48.812;11.762;2022-08-26T12:21:14;21.77;;;8.70;;
22160;SDS011;49035;48.812;11.762;2022-08-26T12:23:46;22.40;;;8.60;;
22160;SDS011;49035;48.812;11.762;2022-08-26T12:28:46;22.20;;;8.55;;
22160;SDS011;49035;48.812;11.762;2022-08-26T12:31:20;15.88;;;8.73;;
22160;SDS011;49035;48.812;11.762;2022-08-26T12:33:55;20.05;;;8.98;;
22160;SDS011;49035;48.812;11.762;2022-08-26T12:36:34;18.10;;;8.80;;
22160;SDS011;49035;48.812;11.762;2022-08-26T12:39:11;16.77;;;8.85;;
22160;SDS011;49035;48.812;11.762;2022-08-26T12:44:31;26.45;;;8.38;;
22160;SDS011;49035;48.812;11.762;2022-08-26T12:47:04;14.65;;;8.57;;
22160;SDS011;49035;48.812;11.762;2022-08-26T12:49:39;16.92;;;8.55;;
22160;SDS011;49035;48.812;11.762;2022-08-26T12:52:08;16.95;;;8.93;;
22160;SDS011;49035;48.812;11.762;2022-08-26T12:55:00;21.58;;;9.10;;
22160;SDS011;49035;48.812;11.762;2022-08-26T12:57:29;21.65;;;8.88;;
22160;SDS011;49035;48.812;11.762;2022-08-26T13:03:00;23.25;;;9.75;;
22160;SDS011;49035;48.812;11.762;2022-08-26T13:05:31;26.40;;;9.77;;
22160;SDS011;49035;48.812;11.762;2022-08-26T13:10:59;22.50;;;10.50;;
22160;SDS011;49035;48.812;11.762;2022-08-26T13:13:31;23.63;;;10.65;;
22160;SDS011;49035;48.812;11.762;2022-08-26T13:15:57;22.77;;;10.82;;
22160;SDS011;49035;48.812;11.762;2022-08-26T13:18:23;24.50;;;10.65;;
22160;SDS011;49035;48.812;11.762;2022-08-26T13:20:49;23.90;;;10.80;;
22160;SDS011;49035;48.812;11.762;2022-08-26T13:23:15;19.05;;;9.95;;
22160;SDS011;49035;48.812;11.762;2022-08-26T13:25:42;21.35;;;10.02;;
22160;SDS011;49035;48.812;11.762;2022-08-26T13:28:07;21.40;;;13.00;;
22160;SDS011;49035;48.812;11.762;2022-08-26T13:30:33;24.45;;;11.07;;
22160;SDS011;49035;48.812;11.762;2022-08-26T13:32:58;26.60;;;12.75;;
22160;SDS011;49035;48.812;11.762;2022-08-26T13:35:25;23.65;;;11.10;;
22160;SDS011;49035;48.812;11.762;2022-08-26T13:37:51;21.70;;;11.07;;
22160;SDS011;49035;48.812;11.762;2022-08-26T13:40:16;17.88;;;10.93;;
22160;SDS011;49035;48.812;11.762;2022-08-26T13:42:42;19.30;;;9.90;;
22160;SDS011;49035;48.812;11.762;2022-08-26T13:45:08;17.73;;;10.48;;
22160;SDS011;49035;48.812;11.762;2022-08-26T13:47:35;26.42;;;11.52;;
22160;SDS011;49035;48.812;11.762;2022-08-26T13:50:01;17.48;;;10.55;;
22160;SDS011;49035;48.812;11.762;2022-08-26T13:52:28;20.38;;;10.25;;
22160;SDS011;49035;48.812;11.762;2022-08-26T13:54:53;22.33;;;9.55;;
22160;SDS011;49035;48.812;11.762;2022-08-26T13:57:19;16.02;;;9.50;;
22160;SDS011;49035;48.812;11.762;2022-08-26T13:59:48;14.00;;;8.98;;
22160;SDS011;49035;48.812;11.762;2022-08-26T14:02:15;16.58;;;10.05;;
22160;SDS011;49035;48.812;11.762;2022-08-26T14:04:40;17.45;;;8.90;;
22160;SDS011;49035;48.812;11.762;2022-08-26T14:07:06;16.75;;;9.00;;
22160;SDS011;49035;48.812;11.762;2022-08-26T14:09:32;16.75;;;8.77;;
22160;SDS011;49035;48.812;11.762;2022-08-26T14:11:57;20.17;;;9.00;;
22160;SDS011;49035;48.812;11.762;2022-08-26T14:14:24;18.40;;;8.50;;
22160;SDS011;49035;48.812;11.762;2022-08-26T14:16:49;22.83;;;9.20;;
22160;SDS011;49035;48.812;11.762;2022-08-26T14:19:16;22.55;;;8.80;;
22160;SDS011;49035;48.812;11.762;2022-08-26T14:21:42;14.63;;;8.55;;
22160;SDS011;49035;48.812;11.762;2022-08-26T14:24:07;17.27;;;9.13;;
22160;SDS011;49035;48.812;11.762;2022-08-26T14:26:33;14.40;;;8.55;;
22160;SDS011;49035;48.812;11.762;2022-08-26T14:28:59;17.00;;;8.75;;
22160;SDS011;49035;48.812;11.762;2022-08-26T14:31:27;20.20;;;8.30;;
22160;SDS011;49035;48.812;11.762;2022-08-26T14:33:56;21.20;;;8.90;;
22160;SDS011;49035;48.812;11.762;2022-08-26T14:36:24;17.60;;;8.57;;
22160;SDS011;49035;48.812;11.762;2022-08-26T14:38:52;13.75;;;8.23;;
22160;SDS011;49035;48.812;11.762;2022-08-26T14:41:19;20.00;;;8.40;;
22160;SDS011;49035;48.812;11.762;2022-08-26T14:43:48;15.68;;;9.07;;
22160;SDS011;49035;48.812;11.762;2022-08-26T14:46:18;14.90;;;8.60;;
22160;SDS011;49035;48.812;11.762;2022-08-26T14:48:44;13.15;;;8.10;;
22160;SDS011;49035;48.812;11.762;2022-08-26T14:51:10;19.33;;;8.30;;
22160;SDS011;49035;48.812;11.762;2022-08-26T14:53:35;20.60;;;8.80;;
22160;SDS011;49035;48.812;11.762;2022-08-26T14:56:20;17.73;;;8.73;;
22160;SDS011;49035;48.812;11.762;2022-08-26T14:58:45;15.48;;;8.55;;
22160;SDS011;49035;48.812;11.762;2022-08-26T15:01:11;16.83;;;9.05;;
22160;SDS011;49035;48.812;11.762;2022-08-26T15:03:37;17.05;;;8.95;;
22160;SDS011;49035;48.812;11.762;2022-08-26T15:06:03;24.73;;;9.25;;
22160;SDS011;49035;48.812;11.762;2022-08-26T15:08:29;15.35;;;9.38;;
22160;SDS011;49035;48.812;11.762;2022-08-26T15:11:00;19.35;;;11.10;;
22160;SDS011;49035;48.812;11.762;2022-08-26T15:13:26;17.60;;;9.45;;
22160;SDS011;49035;48.812;11.762;2022-08-26T15:15:51;18.55;;;8.85;;
22160;SDS011;49035;48.812;11.762;2022-08-26T15:18:17;17.35;;;9.20;;
22160;SDS011;49035;48.812;11.762;2022-08-26T15:20:43;22.25;;;10.10;;
22160;SDS011;49035;48.812;11.762;2022-08-26T15:23:08;18.70;;;10.00;;
22160;SDS011;49035;48.812;11.762;2022-08-26T15:25:34;18.42;;;9.63;;
22160;SDS011;49035;48.812;11.762;2022-08-26T15:28:01;22.02;;;9.65;;
22160;SDS011;49035;48.812;11.762;2022-08-26T15:30:30;14.52;;;9.15;;
22160;SDS011;49035;48.812;11.762;2022-08-26T15:32:55;18.02;;;9.25;;
22160;SDS011;49035;48.812;11.762;2022-08-26T15:35:21;18.73;;;8.85;;
22160;SDS011;49035;48.812;11.762;2022-08-26T15:37:47;16.30;;;9.57;;